Time;durP1;ratioP1;P1;durP2;ratioP2;P2;SDS_P1;SDS_P2;PMS_P1;PMS_P2;Temp;Humidity;BMP_temperature;BMP_pressure;BME280_temperature;BME280_humidity;BME280_pressure;Samples;Min_cycle;Max_cycle;Signal;HPM_P1;HPM_P2
2021/12/25 00:02:25;;;;;;;0.00;0.00;;;3.60;77.00;;;;;;4994192;28;20033;-73
2021/12/25 00:04:51;;;;;;;0.00;0.00;;;3.60;77.00;;;;;;4994141;28;20030;-73
2021/12/25 00:07:17;;;;;;;0.00;0.00;;;3.60;77.00;;;;;;4993879;28;20034;-73
2021/12/25 00:09:43;;;;;;;0.00;0.00;;;3.60;76.90;;;;;;4993900;28;20026;-72
2021/12/25 00:12:09;;;;;;;0.00;0.00;;;3.70;76.90;;;;;;4994014;28;20025;-73
2021/12/25 00:14:35;;;;;;;0.00;0.00;;;3.70;76.90;;;;;;4994090;28;20022;-73
2021/12/25 00:17:01;;;;;;;0.00;0.00;;;3.70;77.00;;;;;;4993820;28;20041;-73
2021/12/25 00:19:26;;;;;;;0.00;0.00;;;3.70;77.10;;;;;;4993960;28;20033;-73
2021/12/25 00:21:52;;;;;;;0.00;0.00;;;3.70;77.00;;;;;;4993462;28;20406;-73
2021/12/25 00:24:18;;;;;;;0.00;0.00;;;3.80;77.00;;;;;;4993634;28;20097;-73
2021/12/25 00:26:55;;;;;;;0.00;0.00;;;3.80;77.00;;;;;;4993851;28;20072;-73
2021/12/25 00:31:55;;;;;;;0.00;0.00;;;3.90;76.70;;;;;;4993766;28;20054;-73
2021/12/25 00:34:23;;;;;;;0.00;0.00;;;3.90;76.70;;;;;;4993692;28;20027;-73
2021/12/25 00:36:50;;;;;;;0.00;0.00;;;3.90;76.60;;;;;;4993508;28;20126;-73
2021/12/25 00:39:16;;;;;;;0.00;0.00;;;3.90;76.60;;;;;;4996354;28;20030;-73
2021/12/25 00:41:43;;;;;;;0.00;0.00;;;3.90;76.60;;;;;;4997722;28;20034;-73
2021/12/25 00:44:08;;;;;;;0.00;0.00;;;3.90;76.50;;;;;;4997723;28;20157;-74
2021/12/25 00:46:34;;;;;;;0.00;0.00;;;3.90;76.40;;;;;;4997502;28;20057;-73
2021/12/25 00:49:00;;;;;;;0.00;0.00;;;3.90;76.60;;;;;;4997758;28;20030;-73
2021/12/25 00:51:25;;;;;;;0.00;0.00;;;3.90;76.50;;;;;;4997687;28;20030;-73
2021/12/25 00:53:51;;;;;;;0.00;0.00;;;3.90;76.60;;;;;;4997574;28;20146;-72
2021/12/25 00:56:17;;;;;;;0.00;0.00;;;3.90;76.70;;;;;;4997244;28;20366;-73
2021/12/25 00:58:43;;;;;;;0.00;0.00;;;3.90;77.20;;;;;;4997372;28;20121;-71
2021/12/25 01:01:08;;;;;;;0.00;0.00;;;3.80;77.90;;;;;;4997392;28;20018;-74
2021/12/25 01:03:34;;;;;;;0.00;0.00;;;3.70;78.50;;;;;;4997414;28;20370;-71
2021/12/25 01:06:00;;;;;;;0.00;0.00;;;3.70;79.10;;;;;;4997388;28;20433;-72
2021/12/25 01:08:26;;;;;;;0.00;0.00;;;3.60;79.60;;;;;;4997374;28;20029;-70
2021/12/25 01:10:52;;;;;;;0.00;0.00;;;3.60;80.00;;;;;;4997303;28;20026;-72
2021/12/25 01:13:28;;;;;;;0.00;0.00;;;3.60;80.40;;;;;;4997159;28;20105;-71
2021/12/25 01:16:11;;;;;;;0.00;0.00;;;3.60;80.90;;;;;;4997361;28;20465;-73
2021/12/25 01:49:35;;;;;;;0.00;0.00;;;3.60;85.00;;;;;;4975860;28;20101;-72
2021/12/25 01:52:01;;;;;;;0.00;0.00;;;3.60;85.20;;;;;;4977105;28;20051;-71
2021/12/25 01:54:26;;;;;;;0.00;0.00;;;3.70;85.50;;;;;;4976965;28;20033;-72
2021/12/25 01:56:52;;;;;;;0.00;0.00;;;3.70;85.90;;;;;;4976533;28;20035;-71
2021/12/25 01:59:18;;;;;;;0.00;0.00;;;3.70;86.10;;;;;;4976538;28;20027;-72
2021/12/25 02:01:44;;;;;;;0.00;0.00;;;3.80;86.40;;;;;;4977121;28;20026;-71
2021/12/25 02:04:10;;;;;;;0.00;0.00;;;3.80;86.70;;;;;;4976485;28;20352;-72
2021/12/25 02:06:36;;;;;;;0.00;0.00;;;3.90;87.00;;;;;;4987750;28;20032;-72
2021/12/25 02:09:03;;;;;;;0.00;0.00;;;3.90;87.00;;;;;;4996350;28;20030;-72
2021/12/25 02:11:29;;;;;;;0.00;0.00;;;4.00;87.10;;;;;;4996096;28;20466;-72
2021/12/25 02:13:55;;;;;;;0.00;0.00;;;4.00;87.40;;;;;;4996184;28;20029;-73
2021/12/25 02:16:24;;;;;;;0.00;0.00;;;4.10;87.60;;;;;;4996199;28;20033;-72
2021/12/25 02:19:07;;;;;;;0.00;0.00;;;4.10;87.60;;;;;;4995923;28;20035;-72
2021/12/25 02:21:38;;;;;;;0.00;0.00;;;4.20;87.50;;;;;;4995648;28;20105;-72
2021/12/25 02:24:12;;;;;;;0.00;0.00;;;4.30;87.50;;;;;;4996026;28;20334;-72
2021/12/25 02:26:41;;;;;;;0.00;0.00;;;4.30;87.40;;;;;;4995817;28;20486;-72
2021/12/25 02:29:07;;;;;;;0.00;0.00;;;4.30;87.40;;;;;;4995882;28;20023;-72
2021/12/25 02:31:33;;;;;;;0.00;0.00;;;4.40;87.30;;;;;;4995413;28;20033;-72
2021/12/25 02:33:59;;;;;;;0.00;0.00;;;4.40;87.40;;;;;;4995952;28;20101;-72
2021/12/25 02:36:25;;;;;;;0.00;0.00;;;4.50;87.40;;;;;;4995568;28;20172;-73
2021/12/25 02:38:51;;;;;;;0.00;0.00;;;4.50;87.10;;;;;;4995466;28;20030;-73
2021/12/25 02:41:17;;;;;;;0.00;0.00;;;4.50;87.00;;;;;;4995556;28;20026;-73
2021/12/25 02:43:45;;;;;;;0.00;0.00;;;4.60;86.90;;;;;;4995954;28;20030;-72
2021/12/25 02:46:11;;;;;;;0.00;0.00;;;4.60;86.70;;;;;;4995338;28;20066;-72
2021/12/25 02:48:38;;;;;;;0.00;0.00;;;4.60;86.80;;;;;;4995360;28;20084;-72
2021/12/25 02:51:05;;;;;;;0.00;0.00;;;4.60;86.80;;;;;;4995406;28;20026;-72
2021/12/25 02:53:31;;;;;;;0.00;0.00;;;4.60;86.50;;;;;;4995620;28;20072;-73
2021/12/25 02:55:57;;;;;;;0.00;0.00;;;4.70;86.50;;;;;;4995642;28;20030;-72
2021/12/25 02:58:24;;;;;;;0.00;0.00;;;4.70;86.40;;;;;;4995193;28;20109;-72
2021/12/25 03:00:54;;;;;;;0.00;0.00;;;4.70;86.30;;;;;;4994556;28;20474;-72
2021/12/25 03:03:20;;;;;;;0.00;0.00;;;4.80;86.40;;;;;;4994955;28;20106;-71
2021/12/25 03:05:46;;;;;;;0.00;0.00;;;4.80;86.20;;;;;;4994940;28;20053;-73
2021/12/25 03:08:13;;;;;;;0.00;0.00;;;4.90;86.20;;;;;;4994757;28;20037;-72
2021/12/25 03:10:40;;;;;;;0.00;0.00;;;4.90;86.20;;;;;;4995704;28;20137;-72
2021/12/25 03:15:45;;;;;;;0.00;0.00;;;4.90;86.20;;;;;;4994531;28;20029;-72
2021/12/25 03:18:12;;;;;;;0.00;0.00;;;5.00;86.10;;;;;;4994896;28;20041;-74
2021/12/25 03:20:40;;;;;;;0.00;0.00;;;5.00;85.90;;;;;;4994709;28;20025;-72
2021/12/25 03:23:07;;;;;;;0.00;0.00;;;5.00;85.90;;;;;;4994691;28;20403;-72
2021/12/25 03:25:33;;;;;;;0.00;0.00;;;5.10;85.90;;;;;;4994651;28;20034;-72
2021/12/25 03:27:58;;;;;;;0.00;0.00;;;5.10;85.70;;;;;;4994539;28;20351;-72
2021/12/25 03:30:25;;;;;;;0.00;0.00;;;5.10;85.80;;;;;;4994671;28;20022;-72
2021/12/25 03:32:51;;;;;;;0.00;0.00;;;5.20;85.60;;;;;;4994286;28;20477;-73
2021/12/25 03:35:17;;;;;;;0.00;0.00;;;5.20;85.50;;;;;;4994157;28;20022;-72
2021/12/25 03:37:42;;;;;;;0.00;0.00;;;5.20;85.70;;;;;;4994374;28;20022;-72
2021/12/25 03:40:09;;;;;;;0.00;0.00;;;5.20;85.60;;;;;;4994667;28;20056;-72
2021/12/25 03:42:35;;;;;;;0.00;0.00;;;5.20;85.50;;;;;;4994311;28;20054;-72
2021/12/25 03:45:01;;;;;;;0.00;0.00;;;5.30;85.50;;;;;;4994475;28;20046;-72
2021/12/25 03:47:34;;;;;;;0.00;0.00;;;5.30;85.30;;;;;;4994269;28;20023;-72
2021/12/25 03:58:25;;;;;;;0.00;0.00;;;5.50;84.70;;;;;;4994020;28;20469;-72
2021/12/25 04:00:51;;;;;;;0.00;0.00;;;5.60;84.80;;;;;;4994382;28;20050;-72
2021/12/25 04:03:28;;;;;;;0.00;0.00;;;5.60;84.50;;;;;;4994178;28;20026;-73
2021/12/25 04:05:54;;;;;;;0.00;0.00;;;5.70;84.50;;;;;;4994265;28;20381;-72
2021/12/25 04:08:24;;;;;;;0.00;0.00;;;5.70;84.40;;;;;;4993669;28;20097;-72
2021/12/25 04:10:53;;;;;;;0.00;0.00;;;5.80;84.50;;;;;;4994190;28;20054;-72
2021/12/25 04:13:19;;;;;;;0.00;0.00;;;5.80;84.20;;;;;;4993107;28;20112;-72
2021/12/25 04:15:46;;;;;;;0.00;0.00;;;5.90;83.90;;;;;;4993934;28;20403;-72
2021/12/25 04:18:12;;;;;;;0.00;0.00;;;5.90;83.90;;;;;;4993959;28;20041;-72
2021/12/25 04:20:38;;;;;;;0.00;0.00;;;5.90;83.70;;;;;;4993767;28;20439;-72
2021/12/25 04:23:17;;;;;;;0.00;0.00;;;6.00;83.70;;;;;;4993749;28;20072;-72
2021/12/25 04:25:43;;;;;;;0.00;0.00;;;6.00;83.50;;;;;;4994087;28;20026;-72
2021/12/25 04:28:16;;;;;;;0.00;0.00;;;6.00;83.20;;;;;;4993769;28;20018;-72
2021/12/25 05:03:58;;;;;;;0.00;0.00;;;6.30;81.90;;;;;;4973816;28;20255;-72
2021/12/25 05:06:24;;;;;;;0.00;0.00;;;6.30;81.80;;;;;;4973964;28;20081;-72
2021/12/25 05:08:51;;;;;;;0.00;0.00;;;6.30;81.60;;;;;;4974445;28;20105;-72
2021/12/25 05:11:17;;;;;;;0.00;0.00;;;6.40;81.70;;;;;;4974093;28;20018;-72
2021/12/25 05:13:43;;;;;;;0.00;0.00;;;6.40;81.50;;;;;;4986475;28;20022;-72
2021/12/25 05:16:10;;;;;;;0.00;0.00;;;6.40;81.50;;;;;;4993420;28;20042;-72
2021/12/25 05:18:35;;;;;;;0.00;0.00;;;6.40;81.60;;;;;;4986735;28;20050;-72
2021/12/25 05:21:01;;;;;;;0.00;0.00;;;6.40;81.30;;;;;;4973895;28;20031;-72
2021/12/25 05:23:27;;;;;;;0.00;0.00;;;6.40;80.10;;;;;;4973834;28;20050;-72
2021/12/25 05:25:53;;;;;;;0.00;0.00;;;6.40;80.00;;;;;;4977308;28;20097;-72
2021/12/25 05:28:25;;;;;;;0.00;0.00;;;6.40;80.30;;;;;;4977425;28;20426;-74
2021/12/25 05:30:53;;;;;;;0.00;0.00;;;6.40;80.40;;;;;;4977357;28;20058;-72
2021/12/25 05:33:19;;;;;;;0.00;0.00;;;6.40;80.50;;;;;;4977562;28;20027;-72
2021/12/25 05:35:45;;;;;;;0.00;0.00;;;6.40;80.70;;;;;;4977535;28;20482;-72
2021/12/25 05:38:16;;;;;;;0.00;0.00;;;6.40;80.70;;;;;;4977089;28;20023;-72
2021/12/25 05:40:43;;;;;;;0.00;0.00;;;6.50;80.50;;;;;;4977310;28;20031;-72
2021/12/25 05:43:09;;;;;;;0.00;0.00;;;6.50;80.30;;;;;;4977378;28;20073;-72
2021/12/25 05:45:35;;;;;;;0.00;0.00;;;6.50;80.40;;;;;;4977413;28;20537;-72
2021/12/25 05:48:01;;;;;;;0.00;0.00;;;6.50;80.50;;;;;;4977050;28;20142;-72
2021/12/25 05:50:26;;;;;;;0.00;0.00;;;6.50;80.70;;;;;;4976885;28;20034;-73
2021/12/25 05:52:57;;;;;;;0.00;0.00;;;6.60;80.80;;;;;;4977147;28;20031;-72
2021/12/25 05:55:24;;;;;;;0.00;0.00;;;6.60;80.30;;;;;;4976873;28;20038;-72
2021/12/25 05:57:50;;;;;;;0.00;0.00;;;6.60;80.20;;;;;;4977127;28;20026;-72
2021/12/25 06:00:17;;;;;;;0.00;0.00;;;6.60;80.10;;;;;;4976837;28;20019;-72
2021/12/25 06:02:43;;;;;;;0.00;0.00;;;6.60;80.30;;;;;;4977118;28;20359;-72
2021/12/25 06:05:11;;;;;;;0.00;0.00;;;6.60;80.30;;;;;;4976921;28;20425;-72
2021/12/25 06:07:41;;;;;;;0.00;0.00;;;6.60;79.20;;;;;;4976842;28;20022;-72
2021/12/25 06:10:09;;;;;;;0.00;0.00;;;6.70;79.00;;;;;;4976703;28;20081;-72
2021/12/25 06:12:37;;;;;;;0.00;0.00;;;6.70;79.30;;;;;;4987585;28;20097;-72
2021/12/25 06:15:05;;;;;;;0.00;0.00;;;6.60;79.60;;;;;;4994625;28;20105;-72
2021/12/25 06:17:31;;;;;;;0.00;0.00;;;6.70;79.80;;;;;;4995085;28;20336;-73
2021/12/25 06:19:57;;;;;;;0.00;0.00;;;6.70;79.80;;;;;;4995360;28;20405;-74
2021/12/25 06:22:23;;;;;;;0.00;0.00;;;6.70;79.80;;;;;;4995594;28;20022;-75
2021/12/25 06:24:52;;;;;;;0.00;0.00;;;6.70;79.80;;;;;;4995829;28;20065;-73
2021/12/25 06:27:21;;;;;;;0.00;0.00;;;6.70;79.70;;;;;;4995941;28;20034;-73
2021/12/25 06:29:47;;;;;;;0.00;0.00;;;6.70;79.80;;;;;;4995561;28;20022;-73
2021/12/25 06:32:13;;;;;;;0.00;0.00;;;6.70;79.70;;;;;;4995732;28;20034;-74
2021/12/25 06:34:39;;;;;;;0.00;0.00;;;6.70;79.60;;;;;;4995722;28;20034;-74
2021/12/25 06:37:08;;;;;;;0.10;0.10;;;6.70;79.50;;;;;;4995205;28;20037;-73
2021/12/25 06:39:34;;;;;;;0.00;0.00;;;6.80;79.90;;;;;;4995985;28;20029;-72
2021/12/25 06:42:00;;;;;;;0.00;0.00;;;6.80;79.20;;;;;;4995443;28;20022;-73
2021/12/25 06:44:27;;;;;;;0.00;0.00;;;6.80;79.00;;;;;;4995381;28;20027;-73
2021/12/25 06:46:54;;;;;;;0.00;0.00;;;6.80;79.00;;;;;;4995827;28;20026;-74
2021/12/25 06:49:21;;;;;;;0.00;0.00;;;6.80;78.90;;;;;;4995331;28;20484;-73
2021/12/25 06:51:48;;;;;;;0.00;0.00;;;6.80;78.80;;;;;;4995100;28;20025;-75
2021/12/25 06:54:14;;;;;;;0.00;0.00;;;6.80;78.80;;;;;;4995084;28;20589;-73
2021/12/25 06:56:40;;;;;;;0.00;0.00;;;6.80;78.90;;;;;;4995079;28;20117;-73
2021/12/25 06:59:07;;;;;;;0.00;0.00;;;6.80;78.70;;;;;;4995314;28;20022;-74
2021/12/25 07:01:36;;;;;;;0.00;0.00;;;6.90;78.80;;;;;;4994884;28;20454;-74
2021/12/25 07:04:03;;;;;;;0.00;0.00;;;6.90;78.70;;;;;;4995499;28;20073;-73
2021/12/25 07:06:32;;;;;;;0.00;0.00;;;6.90;78.80;;;;;;4995373;28;20030;-74
2021/12/25 07:08:58;;;;;;;0.00;0.00;;;6.90;78.80;;;;;;4995145;28;20029;-74
2021/12/25 07:11:24;;;;;;;0.00;0.00;;;6.90;78.60;;;;;;4995148;28;20026;-74
2021/12/25 07:13:51;;;;;;;0.00;0.00;;;7.00;78.70;;;;;;4995132;28;20033;-73
2021/12/25 07:16:17;;;;;;;0.00;0.00;;;7.00;78.70;;;;;;4995266;28;20030;-73
2021/12/25 07:18:43;;;;;;;0.00;0.00;;;7.00;78.80;;;;;;4994860;28;20026;-72
2021/12/25 07:21:09;;;;;;;0.00;0.00;;;7.00;78.80;;;;;;4994419;28;20089;-73
2021/12/25 07:23:35;;;;;;;0.00;0.00;;;7.00;78.70;;;;;;4994274;28;20048;-73
2021/12/25 07:26:01;;;;;;;0.00;0.00;;;7.10;78.50;;;;;;4994741;28;20458;-73
2021/12/25 07:28:28;;;;;;;0.00;0.00;;;7.10;78.20;;;;;;4994541;28;20026;-75
2021/12/25 07:31:00;;;;;;;0.00;0.00;;;7.10;77.70;;;;;;4994466;28;20023;-72
2021/12/25 07:33:26;;;;;;;0.00;0.00;;;7.10;77.40;;;;;;4994697;28;20050;-72
2021/12/25 07:35:55;;;;;;;0.00;0.00;;;7.10;77.10;;;;;;4994594;28;20143;-74
2021/12/25 07:38:21;;;;;;;0.00;0.00;;;7.10;76.60;;;;;;4994772;28;20113;-73
2021/12/25 07:40:50;;;;;;;0.00;0.00;;;7.10;76.60;;;;;;4994707;28;20022;-76
2021/12/25 07:43:17;;;;;;;0.00;0.00;;;7.10;76.10;;;;;;4994237;28;20045;-72
2021/12/25 07:45:46;;;;;;;0.00;0.00;;;7.20;75.60;;;;;;4994471;28;20022;-72
2021/12/25 07:48:12;;;;;;;0.00;0.00;;;7.10;73.50;;;;;;4993977;28;20129;-73
2021/12/25 07:50:39;;;;;;;0.00;0.00;;;7.10;73.00;;;;;;4994566;28;20455;-73
2021/12/25 07:53:05;;;;;;;0.00;0.00;;;7.10;72.30;;;;;;4994180;28;20050;-73
2021/12/25 07:55:33;;;;;;;0.00;0.00;;;7.10;72.00;;;;;;4993905;28;20060;-73
2021/12/25 07:57:59;;;;;;;0.00;0.00;;;7.00;71.50;;;;;;4994205;28;20038;-73
2021/12/25 08:00:28;;;;;;;0.00;0.00;;;7.00;71.90;;;;;;4993919;28;20105;-72
2021/12/25 08:02:54;;;;;;;0.00;0.00;;;7.10;71.80;;;;;;4994092;28;20026;-73
2021/12/25 08:05:20;;;;;;;0.00;0.00;;;7.10;71.80;;;;;;4993850;28;20022;-74
2021/12/25 08:07:47;;;;;;;0.00;0.00;;;7.10;71.10;;;;;;4993621;28;20026;-73
2021/12/25 08:10:14;;;;;;;0.00;0.00;;;7.10;70.90;;;;;;4993578;28;20058;-73
2021/12/25 08:12:50;;;;;;;0.00;0.00;;;7.10;70.50;;;;;;4993599;28;20022;-73
2021/12/25 08:15:30;;;;;;;0.00;0.00;;;7.00;70.00;;;;;;4993489;28;20014;-73
2021/12/25 08:18:02;;;;;;;0.00;0.00;;;6.90;70.20;;;;;;4993560;28;20033;-73
2021/12/25 08:20:30;;;;;;;0.00;0.00;;;6.90;69.90;;;;;;4993937;28;20112;-73
2021/12/25 08:22:56;;;;;;;0.00;0.00;;;6.80;70.00;;;;;;4993530;28;20019;-74
2021/12/25 08:25:23;;;;;;;0.00;0.00;;;6.70;69.80;;;;;;4993479;28;20033;-74
2021/12/25 08:27:49;;;;;;;0.00;0.00;;;6.70;70.00;;;;;;4993468;28;20362;-72
2021/12/25 08:30:17;;;;;;;0.00;0.00;;;6.60;69.90;;;;;;4993924;28;20030;-74
2021/12/25 08:32:44;;;;;;;0.00;0.00;;;6.70;69.80;;;;;;4993592;28;20023;-73
2021/12/25 08:35:14;;;;;;;0.00;0.00;;;6.70;69.50;;;;;;4993525;28;20413;-73
2021/12/25 08:37:40;;;;;;;0.00;0.00;;;6.70;69.40;;;;;;4993393;28;20038;-73
2021/12/25 08:40:08;;;;;;;0.00;0.00;;;6.70;68.90;;;;;;4993698;28;20054;-73
2021/12/25 08:42:34;;;;;;;0.00;0.00;;;6.70;68.90;;;;;;4993690;28;20025;-73
2021/12/25 08:47:30;;;;;;;0.00;0.00;;;6.80;67.70;;;;;;4993236;28;20101;-73
2021/12/25 08:49:56;;;;;;;0.00;0.00;;;6.80;67.60;;;;;;4993076;28;20015;-74
2021/12/25 08:52:24;;;;;;;0.00;0.00;;;6.80;66.60;;;;;;4983999;28;20030;-74
2021/12/25 08:54:50;;;;;;;0.00;0.00;;;6.70;66.20;;;;;;4993577;28;20022;-73
2021/12/25 08:57:18;;;;;;;0.00;0.00;;;6.70;66.10;;;;;;4990251;28;20030;-73
2021/12/25 08:59:44;;;;;;;0.00;0.00;;;6.70;65.90;;;;;;4994071;28;20451;-73
2021/12/25 09:02:14;;;;;;;0.00;0.00;;;6.70;65.80;;;;;;4996249;28;20049;-73
2021/12/25 09:04:41;;;;;;;0.00;0.00;;;6.70;65.20;;;;;;4996786;28;20120;-73
2021/12/25 09:07:08;;;;;;;0.00;0.00;;;6.70;65.30;;;;;;4996744;28;20038;-73
2021/12/25 09:09:34;;;;;;;0.00;0.00;;;6.80;64.90;;;;;;5011883;28;20041;-76
2021/12/25 09:12:01;;;;;;;0.00;0.00;;;6.80;64.00;;;;;;4993166;28;20034;-75
2021/12/25 09:14:29;;;;;;;0.00;0.00;;;6.80;63.50;;;;;;4982142;28;20075;-74
2021/12/25 09:16:55;;;;;;;0.00;0.00;;;6.80;64.10;;;;;;4984062;28;20037;-73
2021/12/25 09:19:21;;;;;;;0.00;0.00;;;6.90;63.50;;;;;;4968205;28;20026;-73
2021/12/25 09:21:50;;;;;;;0.00;0.00;;;7.00;63.40;;;;;;4996620;28;20482;-73
2021/12/25 09:24:15;;;;;;;0.00;0.00;;;7.00;63.50;;;;;;4996988;28;20043;-73
2021/12/25 09:26:42;;;;;;;0.00;0.00;;;7.10;63.20;;;;;;4996841;28;20061;-74
2021/12/25 09:29:08;;;;;;;0.00;0.00;;;7.10;63.00;;;;;;4996573;28;20073;-74
2021/12/25 09:31:34;;;;;;;0.00;0.00;;;7.00;61.20;;;;;;4996517;28;20049;-74
2021/12/25 09:34:00;;;;;;;0.00;0.00;;;6.90;61.10;;;;;;4997111;28;20101;-73
2021/12/25 09:36:29;;;;;;;0.00;0.00;;;6.90;61.20;;;;;;4996459;28;20222;-73
2021/12/25 09:38:55;;;;;;;0.00;0.00;;;6.80;61.30;;;;;;4979811;28;20146;-74
2021/12/25 09:41:27;;;;;;;0.00;0.00;;;6.80;61.50;;;;;;4996678;28;20026;-73
2021/12/25 09:43:53;;;;;;;0.00;0.00;;;6.90;62.30;;;;;;4996369;28;20033;-73
2021/12/25 09:46:21;;;;;;;0.00;0.00;;;7.00;62.50;;;;;;4996577;28;20022;-74
2021/12/25 09:48:50;;;;;;;0.00;0.00;;;7.00;62.30;;;;;;4994196;28;20331;-73
2021/12/25 09:51:17;;;;;;;0.00;0.00;;;7.00;61.60;;;;;;4994740;28;20042;-74
2021/12/25 09:53:42;;;;;;;0.00;0.00;;;6.90;61.60;;;;;;4996156;28;20370;-73
2021/12/25 09:56:08;;;;;;;0.00;0.00;;;6.90;61.70;;;;;;4995831;28;20026;-72
2021/12/25 09:58:34;;;;;;;0.00;0.00;;;6.80;61.40;;;;;;4995989;28;20026;-73
2021/12/25 10:01:00;;;;;;;0.00;0.00;;;6.80;61.40;;;;;;4995886;28;20423;-72
2021/12/25 10:06:47;;;;;;;0.00;0.00;;;6.70;62.40;;;;;;4977319;28;20029;-73
2021/12/25 10:09:24;;;;;;;0.00;0.00;;;6.80;62.20;;;;;;4995565;28;20027;-74
2021/12/25 10:12:10;;;;;;;0.00;0.00;;;6.80;61.60;;;;;;4992289;28;20025;-74
2021/12/25 10:14:38;;;;;;;0.00;0.00;;;6.70;61.70;;;;;;4995933;28;20031;-74
2021/12/25 10:17:21;;;;;;;0.00;0.00;;;6.60;61.30;;;;;;4995960;28;20039;-73
2021/12/25 10:20:16;;;;;;;0.00;0.00;;;6.60;61.60;;;;;;4995585;28;20031;-73
2021/12/25 10:23:09;;;;;;;0.00;0.00;;;6.60;61.40;;;;;;4986632;28;20058;-74
2021/12/25 10:25:55;;;;;;;0.00;0.00;;;6.50;61.40;;;;;;4995712;28;20038;-74
2021/12/25 10:28:34;;;;;;;0.00;0.00;;;6.50;61.50;;;;;;4994236;28;20108;-74
2021/12/25 10:31:29;;;;;;;0.00;0.00;;;6.50;61.70;;;;;;4995040;28;20030;-72
2021/12/25 10:33:57;;;;;;;0.00;0.00;;;6.50;61.50;;;;;;4995300;28;20026;-73
2021/12/25 10:36:23;;;;;;;0.00;0.00;;;6.50;62.10;;;;;;4995204;28;20034;-73
2021/12/25 10:39:10;;;;;;;0.00;0.00;;;6.60;62.00;;;;;;4991919;28;20471;-73
2021/12/25 10:41:49;;;;;;;0.00;0.00;;;6.80;62.30;;;;;;4992568;28;20105;-72
2021/12/25 10:44:26;;;;;;;0.00;0.00;;;7.70;61.80;;;;;;4992434;28;20049;-72
2021/12/25 10:47:01;;;;;;;0.00;0.00;;;8.90;59.50;;;;;;4994864;28;20036;-72
2021/12/25 10:49:33;;;;;;;;;;;9.20;56.00;;;;;;4995657;28;20037;-73
2021/12/25 10:52:11;;;;;;;0.00;0.00;;;9.10;56.10;;;;;;4995227;28;20012;-73
2021/12/25 10:54:40;;;;;;;0.00;0.00;;;8.90;56.20;;;;;;4994845;28;20041;-73
2021/12/25 10:57:06;;;;;;;0.00;0.00;;;8.70;56.70;;;;;;4994679;28;20076;-76
2021/12/25 11:00:04;;;;;;;0.00;0.00;;;8.50;57.10;;;;;;4995093;28;20026;-74
2021/12/25 11:02:45;;;;;;;0.00;0.00;;;8.30;57.50;;;;;;4987097;28;20046;-72
2021/12/25 11:05:25;;;;;;;0.00;0.00;;;8.30;56.20;;;;;;4997174;28;20077;-73
2021/12/25 11:08:18;;;;;;;0.00;0.00;;;8.10;57.00;;;;;;4986364;28;20045;-73
2021/12/25 11:10:48;;;;;;;0.00;0.00;;;8.10;57.40;;;;;;4983760;28;20415;-74
2021/12/25 11:13:20;;;;;;;0.00;0.00;;;8.10;57.50;;;;;;4994321;28;20386;-74
2021/12/25 11:15:50;;;;;;;0.00;0.00;;;8.00;56.40;;;;;;5001318;28;20129;-73
2021/12/25 11:18:17;;;;;;;0.00;0.00;;;7.90;56.60;;;;;;5003929;28;20045;-74
2021/12/25 11:20:44;;;;;;;0.00;0.00;;;7.80;56.30;;;;;;5005259;28;20022;-74
2021/12/25 11:23:11;;;;;;;0.00;0.00;;;7.70;56.60;;;;;;4993616;28;20472;-74
2021/12/25 11:25:39;;;;;;;0.00;0.00;;;7.60;57.10;;;;;;4995037;28;20112;-72
2021/12/25 11:28:10;;;;;;;0.00;0.00;;;7.50;57.40;;;;;;4994913;28;20038;-74
2021/12/25 11:30:40;;;;;;;0.00;0.00;;;7.40;57.50;;;;;;4997269;28;20026;-72
2021/12/25 11:33:08;;;;;;;0.00;0.00;;;7.30;57.40;;;;;;4995645;28;20030;-74
2021/12/25 11:35:35;;;;;;;0.00;0.00;;;7.30;57.90;;;;;;4993851;28;20033;-73
2021/12/25 11:38:05;;;;;;;0.00;0.00;;;7.20;58.10;;;;;;4993775;28;20474;-73
2021/12/25 11:40:34;;;;;;;0.00;0.00;;;7.30;58.10;;;;;;4994479;28;20058;-74
2021/12/25 11:43:03;;;;;;;0.00;0.00;;;7.20;57.80;;;;;;4999883;28;20097;-73
2021/12/25 11:45:34;;;;;;;0.00;0.00;;;7.10;58.10;;;;;;4996225;28;20034;-75
2021/12/25 11:48:11;;;;;;;0.00;0.00;;;7.00;58.30;;;;;;4993384;28;20497;-76
2021/12/25 11:50:42;;;;;;;0.00;0.00;;;6.90;57.70;;;;;;4995232;28;20049;-74
2021/12/25 11:53:23;;;;;;;0.00;0.00;;;6.70;57.80;;;;;;4980257;28;20026;-73
2021/12/25 11:58:41;;;;;;;0.00;0.00;;;6.70;58.50;;;;;;5000707;28;20102;-74
2021/12/25 12:01:30;;;;;;;0.00;0.00;;;6.60;58.70;;;;;;5011540;28;20038;-74
2021/12/25 12:08:15;;;;;;;0.00;0.00;;;6.30;58.80;;;;;;4982686;28;20049;-73
2021/12/25 12:10:44;;;;;;;0.00;0.00;;;6.20;59.10;;;;;;4990338;28;20037;-74
2021/12/25 12:13:25;;;;;;;0.00;0.00;;;6.10;59.50;;;;;;5013456;28;20085;-73
2021/12/25 12:16:00;;;;;;;0.00;0.00;;;6.10;59.60;;;;;;5012493;28;20136;-73
2021/12/25 12:18:27;;;;;;;0.00;0.00;;;6.00;59.70;;;;;;5011668;28;20095;-74
2021/12/25 12:21:08;;;;;;;0.00;0.00;;;5.90;60.00;;;;;;5011078;28;20061;-74
2021/12/25 12:26:12;;;;;;;0.00;0.00;;;5.80;60.60;;;;;;5005841;28;20061;-72
2021/12/25 12:28:47;;;;;;;0.00;0.00;;;5.70;61.20;;;;;;4997112;28;20022;-72
2021/12/25 12:31:36;;;;;;;0.00;0.00;;;5.60;61.40;;;;;;4993145;28;20046;-72
2021/12/25 12:34:23;;;;;;;0.35;0.00;;;5.50;61.70;;;;;;4992502;28;20121;-73
2021/12/25 12:36:50;;;;;;;0.00;0.00;;;5.40;61.90;;;;;;4973673;28;20129;-72
2021/12/25 12:39:18;;;;;;;0.00;0.00;;;5.20;62.20;;;;;;4998327;28;20026;-75
2021/12/25 12:41:53;;;;;;;0.00;0.00;;;5.20;62.50;;;;;;4989542;28;20121;-73
2021/12/25 12:44:30;;;;;;;0.00;0.00;;;5.10;63.00;;;;;;4987642;28;20038;-74
2021/12/25 12:47:01;;;;;;;0.00;0.00;;;5.00;64.60;;;;;;4990323;28;20552;-73
2021/12/25 12:49:52;;;;;;;0.00;0.00;;;4.90;64.80;;;;;;4991647;28;20033;-74
2021/12/25 12:52:20;;;;;;;0.00;0.00;;;4.70;65.10;;;;;;5002679;28;20034;-74
2021/12/25 12:55:05;;;;;;;0.00;0.00;;;4.60;65.60;;;;;;4992340;28;20212;-74
2021/12/25 12:57:42;;;;;;;0.00;0.00;;;4.50;66.10;;;;;;5003487;28;20042;-73
2021/12/25 13:00:27;;;;;;;0.00;0.00;;;4.30;66.80;;;;;;5010811;28;20061;-73
2021/12/25 13:02:54;;;;;;;;;;;4.10;67.30;;;;;;5001714;28;20040;-72
2021/12/25 13:05:31;;;;;;;0.00;0.00;;;4.00;67.60;;;;;;4992958;28;19916;-73
2021/12/25 13:07:59;;;;;;;0.00;0.00;;;4.00;67.70;;;;;;4990554;28;20035;-73
2021/12/25 13:10:37;;;;;;;0.00;0.00;;;4.00;68.10;;;;;;4983051;28;20093;-73
2021/12/25 13:13:12;;;;;;;0.00;0.00;;;4.00;68.20;;;;;;4992606;28;20439;-73
2021/12/25 13:15:43;;;;;;;0.00;0.00;;;3.90;68.30;;;;;;4987802;28;20054;-74
2021/12/25 13:18:11;;;;;;;0.00;0.00;;;3.90;68.60;;;;;;4993163;28;20026;-78
2021/12/25 13:20:44;;;;;;;0.00;0.00;;;3.90;68.80;;;;;;4994779;28;20022;-72
2021/12/25 13:23:34;;;;;;;0.00;0.00;;;3.90;69.50;;;;;;4996998;28;20065;-73
2021/12/25 13:26:07;;;;;;;0.00;0.00;;;3.90;70.50;;;;;;4989850;28;20034;-72
2021/12/25 13:28:35;;;;;;;0.00;0.00;;;3.90;71.10;;;;;;4992708;28;20443;-72
2021/12/25 13:31:18;;;;;;;0.00;0.00;;;3.90;72.00;;;;;;4987386;28;20112;-72
2021/12/25 13:34:03;;;;;;;0.00;0.00;;;4.00;72.60;;;;;;4991171;28;20030;-73
2021/12/25 13:36:34;;;;;;;0.00;0.00;;;4.00;72.90;;;;;;4992148;28;20031;-73
2021/12/25 13:39:07;;;;;;;0.00;0.00;;;4.00;73.30;;;;;;4991424;28;20390;-74
2021/12/25 13:41:35;;;;;;;0.08;0.00;;;4.00;73.80;;;;;;4993603;28;20510;-73
2021/12/25 13:44:04;;;;;;;0.00;0.00;;;4.00;74.20;;;;;;4989090;28;20042;-72
2021/12/25 13:46:41;;;;;;;0.00;0.00;;;4.00;74.50;;;;;;4978133;28;20150;-73
2021/12/25 13:49:07;;;;;;;0.00;0.00;;;4.00;74.70;;;;;;4990702;28;20033;-74
2021/12/25 13:51:32;;;;;;;0.00;0.00;;;4.00;74.90;;;;;;5011828;28;20030;-74
2021/12/25 13:53:58;;;;;;;0.00;0.00;;;3.90;75.10;;;;;;4995898;28;20034;-73
2021/12/25 13:56:24;;;;;;;0.00;0.00;;;3.90;75.30;;;;;;4996266;28;20053;-74
2021/12/25 13:58:50;;;;;;;0.00;0.00;;;3.90;75.60;;;;;;4996782;28;20097;-74
2021/12/25 14:01:16;;;;;;;0.00;0.00;;;3.80;75.90;;;;;;4995153;28;20034;-73
2021/12/25 14:03:43;;;;;;;0.00;0.00;;;3.80;76.20;;;;;;4996187;28;20022;-73
2021/12/25 14:06:11;;;;;;;0.00;0.00;;;3.80;76.60;;;;;;4996002;28;20034;-73
2021/12/25 14:08:36;;;;;;;0.00;0.00;;;3.80;76.40;;;;;;4996134;28;20430;-73
2021/12/25 14:14:26;;;;;;;0.00;0.00;;;3.80;76.90;;;;;;4976567;28;20050;-72
2021/12/25 14:16:56;;;;;;;0.00;0.00;;;3.90;77.30;;;;;;4975970;28;20050;-72
2021/12/25 14:19:25;;;;;;;0.00;0.00;;;3.90;77.50;;;;;;4976481;28;20477;-72
2021/12/25 14:22:04;;;;;;;0.00;0.00;;;3.90;77.40;;;;;;4976065;28;20033;-72
2021/12/25 14:24:47;;;;;;;0.00;0.00;;;3.90;77.60;;;;;;4976897;28;20205;-72
2021/12/25 14:27:21;;;;;;;0.00;0.00;;;3.90;77.90;;;;;;4976496;28;20030;-72
2021/12/25 14:29:49;;;;;;;0.00;0.00;;;3.90;77.90;;;;;;4976542;28;20023;-72
2021/12/25 14:32:24;;;;;;;0.00;0.00;;;3.90;78.10;;;;;;4976042;28;20034;-72
2021/12/25 14:34:50;;;;;;;;;;;3.90;78.20;;;;;;4976889;28;20394;-72
2021/12/25 14:37:16;;;;;;;0.00;0.00;;;3.90;79.10;;;;;;4975977;28;19914;-72
2021/12/25 14:39:42;;;;;;;0.00;0.00;;;3.90;78.20;;;;;;4976720;28;20030;-72
2021/12/25 14:42:08;;;;;;;0.00;0.00;;;3.80;78.50;;;;;;4976002;28;20031;-72
2021/12/25 14:44:34;;;;;;;0.00;0.00;;;3.80;78.80;;;;;;4975975;28;20027;-72
2021/12/25 14:47:18;;;;;;;0.00;0.00;;;3.90;79.00;;;;;;4976274;28;20447;-72